»·PEaware :: N2166G KPGA-KSEZ

N2166G :: KPGA-KSEZ

FLIGHT INFORMATION

Flight Status: Arrived
Operator: Privately registered:
United States
More flights under this callsign
Pilot: John K. J. (32792)
Aircraft: EMBRAER BRASILIA
(E120)
More flights by this aircraft type
Origin: KPGA Page Mun
United States
Destination: KSEZ Sedona
United States
More flights between these airports :: More routes between these airports
Route: TBC FLG
File this flight plan on PilotEdge
Remarks:
Altitude:
(Current/Filed)
17,500ft
Speed:
(Current/Filed)
250kts
Departed: 11-Jan-22 11:19 AM
Arrived: 11-Jan-22 12:03 PM
Distance/Time
Traveled:
126nm/0:44
Distance/Time
To Go:
Arrived

Flight Plot

Page will automatically refresh every two minutes.

Flight plan parsing failed; only flown route is shown


Map Options




Map Legend


Flown Route
Filed Route
Departure Airport
Arrival Airport
Navaid (VOR, NDB)
Fix

Horizontal Profiles

Position Reports

Time Latitude Longitude Heading Altitude Ground
Speed
11-Jan-22 11:13 36.924540 -111.449801 349 4318ft 0kts
11-Jan-22 11:14 36.924541 -111.449801 349 4318ft 0kts
11-Jan-22 11:15 36.926260 -111.449790 88 4319ft 16kts
11-Jan-22 11:16 36.919770 -111.447985 170 4319ft 40kts
11-Jan-22 11:17 36.917598 -111.447090 83 4318ft 0kts
11-Jan-22 11:18 36.917598 -111.447087 83 4319ft 0kts
11-Jan-22 11:19 36.935302 -111.450287 348 4564ft 160kts
11-Jan-22 11:19 36.966461 -111.434229 81 5849ft 162kts
11-Jan-22 11:21 36.928573 -111.405428 169 8917ft 164kts
11-Jan-22 11:22 36.876709 -111.400697 190 11530ft 211kts
11-Jan-22 11:23 36.814251 -111.415495 191 14067ft 242kts
11-Jan-22 11:24 36.745114 -111.414235 170 16582ft 262kts
11-Jan-22 11:24 36.695047 -111.399534 171 17497ft 286kts
11-Jan-22 11:26 36.600582 -111.375891 172 17500ft 302kts
11-Jan-22 11:27 36.517943 -111.357084 173 17499ft 303kts
11-Jan-22 11:28 36.435103 -111.338651 173 17499ft 303kts
11-Jan-22 11:28 36.366120 -111.323396 173 17499ft 303kts
11-Jan-22 11:29 36.283065 -111.305081 173 17500ft 303kts
11-Jan-22 11:30 36.200260 -111.286867 173 17499ft 303kts
11-Jan-22 11:32 36.106344 -111.296445 213 16932ft 302kts
11-Jan-22 11:32 36.051392 -111.349696 222 16501ft 297kts
11-Jan-22 11:33 35.991492 -111.417364 223 16499ft 290kts
11-Jan-22 11:34 35.932453 -111.484814 223 16500ft 290kts
11-Jan-22 11:35 35.873402 -111.552018 223 16499ft 289kts
11-Jan-22 11:36 35.814454 -111.618883 223 16499ft 285kts
11-Jan-22 11:37 35.756065 -111.684973 223 16246ft 290kts
11-Jan-22 11:38 35.697984 -111.750623 222 15290ft 275kts
11-Jan-22 11:39 35.641938 -111.813794 222 14565ft 275kts
11-Jan-22 11:40 35.585654 -111.877053 222 14500ft 275kts
11-Jan-22 11:41 35.529377 -111.940206 222 14500ft 275kts
11-Jan-22 11:42 35.473106 -112.003261 222 14113ft 264kts
11-Jan-22 11:43 35.421191 -112.061376 221 13105ft 245kts
11-Jan-22 11:44 35.371603 -112.116719 221 12099ft 239kts
11-Jan-22 11:45 35.321335 -112.172659 219 10666ft 246kts
11-Jan-22 11:46 35.256192 -112.201187 189 10500ft 253kts
11-Jan-22 11:47 35.186574 -112.213437 187 10500ft 254kts
11-Jan-22 11:48 35.116685 -112.224835 187 10500ft 254kts
11-Jan-22 11:49 35.047770 -112.236215 187 10498ft 238kts
11-Jan-22 11:50 34.986223 -112.246417 187 10212ft 215kts
11-Jan-22 11:51 34.927913 -112.241160 145 9405ft 209kts
11-Jan-22 11:52 34.888544 -112.190833 130 8633ft 201kts
11-Jan-22 11:53 34.851603 -112.139682 131 8498ft 199kts
11-Jan-22 11:54 34.814278 -112.088618 131 8496ft 201kts
11-Jan-22 11:55 34.777759 -112.038739 131 8501ft 199kts
11-Jan-22 11:56 34.740608 -111.988104 132 8347ft 203kts
11-Jan-22 11:57 34.721771 -111.935621 60 7499ft 175kts
11-Jan-22 11:58 34.755949 -111.901957 40 6713ft 148kts
11-Jan-22 11:59 34.783584 -111.869645 45 6527ft 138kts
11-Jan-22 12:00 34.810825 -111.835731 45 5737ft 140kts
11-Jan-22 12:01 34.836040 -111.804298 44 5044ft 125kts
11-Jan-22 12:02 34.850167 -111.786548 44 4836ft 18kts
11-Jan-22 12:03 34.850890 -111.786904 316 4836ft 1kts
11-Jan-22 12:04 34.851273 -111.787043 137 4836ft 0kts
11-Jan-22 12:05 34.851273 -111.787043 137 4836ft 0kts
11-Jan-22 12:06 34.851273 -111.787043 137 4836ft 0kts
11-Jan-22 12:07 34.851273 -111.787043 137 4836ft 0kts

Navigation Log

Ident Type
Flight plan parsing failed, navigation log unavailable